sensor_id;sensor_type;location;lat;lon;timestamp;P1;durP1;ratioP1;P2;durP2;ratioP2
46116;SDS011;32591;48.102;11.772;2022-12-07T12:21:35;13.55;;;7.97;;
46116;SDS011;32591;48.102;11.772;2022-12-07T12:24:04;13.15;;;7.38;;
46116;SDS011;32591;48.102;11.772;2022-12-07T12:26:39;13.73;;;7.43;;
46116;SDS011;32591;48.102;11.772;2022-12-07T12:29:21;14.98;;;8.02;;
46116;SDS011;32591;48.102;11.772;2022-12-07T12:32:04;13.43;;;6.18;;
46116;SDS011;32591;48.102;11.772;2022-12-07T12:34:40;12.93;;;6.93;;
46116;SDS011;32591;48.102;11.772;2022-12-07T12:37:45;14.68;;;7.80;;
46116;SDS011;32591;48.102;11.772;2022-12-07T12:46:38;11.07;;;6.85;;
46116;SDS011;32591;48.102;11.772;2022-12-07T12:58:36;11.90;;;5.95;;
46116;SDS011;32591;48.102;11.772;2022-12-07T13:04:27;14.13;;;6.80;;
46116;SDS011;32591;48.102;11.772;2022-12-07T13:07:10;11.52;;;6.15;;
46116;SDS011;32591;48.102;11.772;2022-12-07T13:09:43;11.88;;;6.60;;
46116;SDS011;32591;48.102;11.772;2022-12-07T13:12:12;11.30;;;6.60;;
46116;SDS011;32591;48.102;11.772;2022-12-07T13:14:43;12.32;;;6.72;;
46116;SDS011;32591;48.102;11.772;2022-12-07T13:17:56;12.80;;;6.97;;
46116;SDS011;32591;48.102;11.772;2022-12-07T13:23:18;13.05;;;7.70;;
46116;SDS011;32591;48.102;11.772;2022-12-07T13:25:53;10.55;;;6.38;;
46116;SDS011;32591;48.102;11.772;2022-12-07T13:28:27;15.48;;;7.15;;
46116;SDS011;32591;48.102;11.772;2022-12-07T13:31:14;12.88;;;7.55;;
46116;SDS011;32591;48.102;11.772;2022-12-07T13:34:00;13.15;;;7.18;;
46116;SDS011;32591;48.102;11.772;2022-12-07T13:36:30;14.93;;;7.60;;
46116;SDS011;32591;48.102;11.772;2022-12-07T13:39:10;13.82;;;7.72;;
46116;SDS011;32591;48.102;11.772;2022-12-07T13:41:48;13.43;;;7.05;;
46116;SDS011;32591;48.102;11.772;2022-12-07T13:44:17;13.93;;;7.18;;
46116;SDS011;32591;48.102;11.772;2022-12-07T13:46:48;11.73;;;7.28;;
46116;SDS011;32591;48.102;11.772;2022-12-07T13:49:26;14.07;;;7.93;;
46116;SDS011;32591;48.102;11.772;2022-12-07T13:52:08;10.77;;;6.90;;
46116;SDS011;32591;48.102;11.772;2022-12-07T13:54:45;14.15;;;7.72;;
46116;SDS011;32591;48.102;11.772;2022-12-07T13:57:16;13.55;;;7.38;;
46116;SDS011;32591;48.102;11.772;2022-12-07T13:59:43;13.27;;;7.32;;
46116;SDS011;32591;48.102;11.772;2022-12-07T14:02:17;12.95;;;8.43;;
46116;SDS011;32591;48.102;11.772;2022-12-07T14:04:51;12.38;;;6.35;;
46116;SDS011;32591;48.102;11.772;2022-12-07T14:07:33;14.35;;;7.47;;
46116;SDS011;32591;48.102;11.772;2022-12-07T14:10:02;13.52;;;8.95;;
46116;SDS011;32591;48.102;11.772;2022-12-07T14:12:51;11.80;;;6.88;;
46116;SDS011;32591;48.102;11.772;2022-12-07T14:15:19;14.68;;;7.35;;
46116;SDS011;32591;48.102;11.772;2022-12-07T14:17:50;13.73;;;7.28;;
46116;SDS011;32591;48.102;11.772;2022-12-07T14:20:28;11.85;;;7.18;;
46116;SDS011;32591;48.102;11.772;2022-12-07T14:22:57;13.15;;;7.50;;
46116;SDS011;32591;48.102;11.772;2022-12-07T14:25:24;12.40;;;7.22;;
46116;SDS011;32591;48.102;11.772;2022-12-07T14:27:55;13.77;;;7.72;;
46116;SDS011;32591;48.102;11.772;2022-12-07T14:30:25;12.15;;;7.20;;
46116;SDS011;32591;48.102;11.772;2022-12-07T14:32:55;12.27;;;7.38;;
46116;SDS011;32591;48.102;11.772;2022-12-07T14:35:25;16.05;;;7.57;;
46116;SDS011;32591;48.102;11.772;2022-12-07T14:37:53;12.93;;;6.88;;
46116;SDS011;32591;48.102;11.772;2022-12-07T14:40:21;11.82;;;6.50;;
46116;SDS011;32591;48.102;11.772;2022-12-07T14:42:52;11.30;;;6.25;;
46116;SDS011;32591;48.102;11.772;2022-12-07T14:45:26;9.55;;;6.40;;
46116;SDS011;32591;48.102;11.772;2022-12-07T14:47:53;11.85;;;6.30;;
46116;SDS011;32591;48.102;11.772;2022-12-07T14:50:20;10.73;;;6.45;;
46116;SDS011;32591;48.102;11.772;2022-12-07T14:52:49;11.68;;;6.13;;
46116;SDS011;32591;48.102;11.772;2022-12-07T14:55:23;9.65;;;6.25;;
46116;SDS011;32591;48.102;11.772;2022-12-07T14:57:52;10.30;;;6.28;;
46116;SDS011;32591;48.102;11.772;2022-12-07T15:00:21;13.02;;;7.05;;
46116;SDS011;32591;48.102;11.772;2022-12-07T15:02:50;11.18;;;5.97;;
46116;SDS011;32591;48.102;11.772;2022-12-07T15:05:18;11.73;;;6.32;;
46116;SDS011;32591;48.102;11.772;2022-12-07T15:07:46;12.70;;;6.60;;
46116;SDS011;32591;48.102;11.772;2022-12-07T15:10:15;12.60;;;6.82;;
46116;SDS011;32591;48.102;11.772;2022-12-07T15:12:45;12.00;;;6.60;;
46116;SDS011;32591;48.102;11.772;2022-12-07T15:15:12;10.43;;;6.38;;
46116;SDS011;32591;48.102;11.772;2022-12-07T15:17:41;10.95;;;6.18;;
46116;SDS011;32591;48.102;11.772;2022-12-07T15:20:09;10.90;;;6.25;;
46116;SDS011;32591;48.102;11.772;2022-12-07T15:22:41;11.20;;;6.75;;
46116;SDS011;32591;48.102;11.772;2022-12-07T15:25:09;10.80;;;5.85;;
46116;SDS011;32591;48.102;11.772;2022-12-07T15:27:40;15.27;;;7.80;;
46116;SDS011;32591;48.102;11.772;2022-12-07T15:30:07;13.15;;;6.47;;
46116;SDS011;32591;48.102;11.772;2022-12-07T15:32:35;15.63;;;7.40;;
46116;SDS011;32591;48.102;11.772;2022-12-07T15:35:03;12.18;;;6.68;;
46116;SDS011;32591;48.102;11.772;2022-12-07T15:37:31;14.18;;;7.28;;
46116;SDS011;32591;48.102;11.772;2022-12-07T15:39:58;13.68;;;7.50;;
46116;SDS011;32591;48.102;11.772;2022-12-07T15:42:25;14.75;;;7.80;;
46116;SDS011;32591;48.102;11.772;2022-12-07T15:44:52;16.02;;;8.77;;
46116;SDS011;32591;48.102;11.772;2022-12-07T15:47:31;14.45;;;8.18;;
46116;SDS011;32591;48.102;11.772;2022-12-07T15:50:01;15.75;;;9.00;;
46116;SDS011;32591;48.102;11.772;2022-12-07T15:52:29;16.85;;;9.80;;
46116;SDS011;32591;48.102;11.772;2022-12-07T15:54:57;15.43;;;9.07;;
46116;SDS011;32591;48.102;11.772;2022-12-07T15:57:25;13.93;;;8.18;;
46116;SDS011;32591;48.102;11.772;2022-12-07T15:59:52;15.50;;;8.30;;
46116;SDS011;32591;48.102;11.772;2022-12-07T16:02:19;13.70;;;7.45;;
46116;SDS011;32591;48.102;11.772;2022-12-07T16:04:47;12.45;;;7.47;;
46116;SDS011;32591;48.102;11.772;2022-12-07T16:07:15;11.65;;;6.88;;
46116;SDS011;32591;48.102;11.772;2022-12-07T16:09:45;12.73;;;6.93;;
46116;SDS011;32591;48.102;11.772;2022-12-07T16:12:14;14.48;;;7.68;;
46116;SDS011;32591;48.102;11.772;2022-12-07T16:14:42;12.50;;;7.45;;
46116;SDS011;32591;48.102;11.772;2022-12-07T16:17:09;14.63;;;8.43;;
46116;SDS011;32591;48.102;11.772;2022-12-07T16:19:37;15.25;;;7.30;;
46116;SDS011;32591;48.102;11.772;2022-12-07T16:22:04;16.67;;;8.57;;
46116;SDS011;32591;48.102;11.772;2022-12-07T16:24:31;24.17;;;10.57;;
46116;SDS011;32591;48.102;11.772;2022-12-07T16:27:00;26.00;;;10.57;;
46116;SDS011;32591;48.102;11.772;2022-12-07T16:29:27;24.67;;;11.73;;
46116;SDS011;32591;48.102;11.772;2022-12-07T16:31:54;19.10;;;10.57;;
46116;SDS011;32591;48.102;11.772;2022-12-07T16:36:48;21.63;;;10.05;;
46116;SDS011;32591;48.102;11.772;2022-12-07T16:39:15;22.15;;;9.95;;
46116;SDS011;32591;48.102;11.772;2022-12-07T16:41:43;21.65;;;10.32;;
46116;SDS011;32591;48.102;11.772;2022-12-07T16:44:12;18.65;;;9.68;;
46116;SDS011;32591;48.102;11.772;2022-12-07T16:46:39;17.45;;;9.57;;
46116;SDS011;32591;48.102;11.772;2022-12-07T16:49:08;25.30;;;11.50;;
46116;SDS011;32591;48.102;11.772;2022-12-07T16:51:38;24.02;;;12.23;;
46116;SDS011;32591;48.102;11.772;2022-12-07T16:54:08;22.00;;;12.50;;
46116;SDS011;32591;48.102;11.772;2022-12-07T16:56:36;22.25;;;11.98;;
46116;SDS011;32591;48.102;11.772;2022-12-07T16:59:03;17.50;;;9.35;;
46116;SDS011;32591;48.102;11.772;2022-12-07T17:01:32;20.45;;;11.77;;
46116;SDS011;32591;48.102;11.772;2022-12-07T17:03:59;20.55;;;10.13;;
46116;SDS011;32591;48.102;11.772;2022-12-07T17:06:27;19.38;;;9.75;;
46116;SDS011;32591;48.102;11.772;2022-12-07T17:08:56;19.48;;;10.15;;
46116;SDS011;32591;48.102;11.772;2022-12-07T17:11:25;19.02;;;10.60;;
46116;SDS011;32591;48.102;11.772;2022-12-07T17:13:54;16.48;;;9.68;;
46116;SDS011;32591;48.102;11.772;2022-12-07T17:16:40;17.02;;;8.70;;
46116;SDS011;32591;48.102;11.772;2022-12-07T17:19:07;21.08;;;11.02;;
46116;SDS011;32591;48.102;11.772;2022-12-07T17:21:36;23.63;;;12.30;;
46116;SDS011;32591;48.102;11.772;2022-12-07T17:24:04;20.52;;;10.68;;
46116;SDS011;32591;48.102;11.772;2022-12-07T17:26:34;22.38;;;12.00;;
46116;SDS011;32591;48.102;11.772;2022-12-07T17:29:02;20.98;;;11.52;;
46116;SDS011;32591;48.102;11.772;2022-12-07T17:31:31;24.40;;;12.77;;
46116;SDS011;32591;48.102;11.772;2022-12-07T17:33:59;24.60;;;13.40;;
46116;SDS011;32591;48.102;11.772;2022-12-07T17:36:27;29.10;;;15.77;;
46116;SDS011;32591;48.102;11.772;2022-12-07T17:38:56;30.45;;;15.65;;
46116;SDS011;32591;48.102;11.772;2022-12-07T17:41:24;31.85;;;18.05;;
46116;SDS011;32591;48.102;11.772;2022-12-07T17:44:11;38.13;;;20.83;;
46116;SDS011;32591;48.102;11.772;2022-12-07T17:46:40;38.67;;;18.85;;
46116;SDS011;32591;48.102;11.772;2022-12-07T17:49:10;37.72;;;18.98;;
46116;SDS011;32591;48.102;11.772;2022-12-07T17:51:37;34.80;;;16.70;;
46116;SDS011;32591;48.102;11.772;2022-12-07T17:54:22;27.80;;;15.45;;
46116;SDS011;32591;48.102;11.772;2022-12-07T17:59:16;30.75;;;14.45;;
46116;SDS011;32591;48.102;11.772;2022-12-07T18:01:43;28.10;;;16.48;;
46116;SDS011;32591;48.102;11.772;2022-12-07T18:04:12;25.80;;;15.25;;
46116;SDS011;32591;48.102;11.772;2022-12-07T18:06:40;26.17;;;13.52;;
46116;SDS011;32591;48.102;11.772;2022-12-07T18:09:07;22.63;;;13.38;;
46116;SDS011;32591;48.102;11.772;2022-12-07T18:11:35;19.65;;;12.30;;
46116;SDS011;32591;48.102;11.772;2022-12-07T18:14:03;19.65;;;11.65;;
46116;SDS011;32591;48.102;11.772;2022-12-07T18:16:31;21.17;;;10.65;;
46116;SDS011;32591;48.102;11.772;2022-12-07T18:19:00;17.83;;;10.15;;
46116;SDS011;32591;48.102;11.772;2022-12-07T18:21:30;21.17;;;11.52;;
46116;SDS011;32591;48.102;11.772;2022-12-07T18:23:58;18.67;;;10.90;;
46116;SDS011;32591;48.102;11.772;2022-12-07T18:26:27;19.48;;;10.60;;
46116;SDS011;32591;48.102;11.772;2022-12-07T18:28:57;19.92;;;10.13;;
46116;SDS011;32591;48.102;11.772;2022-12-07T18:31:24;16.63;;;8.95;;
46116;SDS011;32591;48.102;11.772;2022-12-07T18:33:52;18.10;;;9.55;;
46116;SDS011;32591;48.102;11.772;2022-12-07T18:36:20;22.60;;;10.18;;
46116;SDS011;32591;48.102;11.772;2022-12-07T18:38:50;14.57;;;8.98;;
46116;SDS011;32591;48.102;11.772;2022-12-07T18:41:17;16.88;;;10.68;;
46116;SDS011;32591;48.102;11.772;2022-12-07T18:43:45;18.42;;;10.18;;
46116;SDS011;32591;48.102;11.772;2022-12-07T18:46:12;19.25;;;10.40;;
46116;SDS011;32591;48.102;11.772;2022-12-07T18:48:42;16.33;;;9.15;;
46116;SDS011;32591;48.102;11.772;2022-12-07T18:51:10;26.27;;;13.45;;
46116;SDS011;32591;48.102;11.772;2022-12-07T18:53:39;29.02;;;17.33;;
46116;SDS011;32591;48.102;11.772;2022-12-07T18:56:10;24.80;;;13.32;;
46116;SDS011;32591;48.102;11.772;2022-12-07T18:58:40;22.25;;;11.85;;
46116;SDS011;32591;48.102;11.772;2022-12-07T19:01:29;20.75;;;12.65;;
46116;SDS011;32591;48.102;11.772;2022-12-07T19:03:56;19.73;;;11.23;;
46116;SDS011;32591;48.102;11.772;2022-12-07T19:06:24;22.08;;;11.32;;
46116;SDS011;32591;48.102;11.772;2022-12-07T19:08:51;25.38;;;13.95;;
46116;SDS011;32591;48.102;11.772;2022-12-07T19:11:20;27.58;;;14.23;;
46116;SDS011;32591;48.102;11.772;2022-12-07T19:14:07;21.60;;;12.40;;
46116;SDS011;32591;48.102;11.772;2022-12-07T19:16:34;23.60;;;12.75;;
46116;SDS011;32591;48.102;11.772;2022-12-07T19:19:01;29.50;;;14.27;;
46116;SDS011;32591;48.102;11.772;2022-12-07T19:21:29;26.20;;;12.98;;
46116;SDS011;32591;48.102;11.772;2022-12-07T19:26:24;22.98;;;13.88;;
46116;SDS011;32591;48.102;11.772;2022-12-07T19:28:51;27.00;;;13.73;;
46116;SDS011;32591;48.102;11.772;2022-12-07T19:33:45;20.02;;;11.32;;
46116;SDS011;32591;48.102;11.772;2022-12-07T19:36:12;18.85;;;11.10;;
46116;SDS011;32591;48.102;11.772;2022-12-07T19:38:39;16.20;;;10.50;;
46116;SDS011;32591;48.102;11.772;2022-12-07T19:43:55;18.95;;;10.50;;
46116;SDS011;32591;48.102;11.772;2022-12-07T19:46:22;20.30;;;11.43;;
46116;SDS011;32591;48.102;11.772;2022-12-07T19:48:50;23.10;;;12.73;;
46116;SDS011;32591;48.102;11.772;2022-12-07T19:51:17;18.73;;;11.05;;
46116;SDS011;32591;48.102;11.772;2022-12-07T19:56:12;17.48;;;10.23;;
46116;SDS011;32591;48.102;11.772;2022-12-07T19:58:40;22.85;;;11.82;;
46116;SDS011;32591;48.102;11.772;2022-12-07T20:01:09;20.63;;;11.50;;
46116;SDS011;32591;48.102;11.772;2022-12-07T20:03:36;22.27;;;12.05;;
46116;SDS011;32591;48.102;11.772;2022-12-07T20:06:06;21.85;;;11.90;;
46116;SDS011;32591;48.102;11.772;2022-12-07T20:08:34;23.10;;;11.60;;
46116;SDS011;32591;48.102;11.772;2022-12-07T20:11:01;21.85;;;11.63;;
46116;SDS011;32591;48.102;11.772;2022-12-07T20:13:50;17.42;;;10.52;;
46116;SDS011;32591;48.102;11.772;2022-12-07T20:16:17;20.80;;;12.18;;
46116;SDS011;32591;48.102;11.772;2022-12-07T20:18:45;21.27;;;12.32;;
46116;SDS011;32591;48.102;11.772;2022-12-07T20:21:13;23.10;;;12.15;;
46116;SDS011;32591;48.102;11.772;2022-12-07T20:23:40;25.38;;;11.57;;
46116;SDS011;32591;48.102;11.772;2022-12-07T20:26:08;44.83;;;20.92;;
46116;SDS011;32591;48.102;11.772;2022-12-07T20:28:37;44.38;;;22.10;;
46116;SDS011;32591;48.102;11.772;2022-12-07T20:31:05;52.78;;;25.73;;
46116;SDS011;32591;48.102;11.772;2022-12-07T20:33:33;38.25;;;20.52;;
46116;SDS011;32591;48.102;11.772;2022-12-07T20:36:01;35.33;;;18.23;;
46116;SDS011;32591;48.102;11.772;2022-12-07T20:38:30;25.70;;;15.05;;
46116;SDS011;32591;48.102;11.772;2022-12-07T20:40:58;25.73;;;12.52;;
46116;SDS011;32591;48.102;11.772;2022-12-07T20:43:27;22.83;;;11.77;;
46116;SDS011;32591;48.102;11.772;2022-12-07T20:45:54;20.42;;;11.80;;
46116;SDS011;32591;48.102;11.772;2022-12-07T20:48:21;21.20;;;11.93;;
46116;SDS011;32591;48.102;11.772;2022-12-07T20:50:50;23.05;;;12.10;;
46116;SDS011;32591;48.102;11.772;2022-12-07T20:53:17;21.45;;;11.55;;
46116;SDS011;32591;48.102;11.772;2022-12-07T20:55:44;20.42;;;11.02;;
46116;SDS011;32591;48.102;11.772;2022-12-07T21:00:38;17.63;;;10.40;;
46116;SDS011;32591;48.102;11.772;2022-12-07T21:03:05;19.90;;;11.63;;
46116;SDS011;32591;48.102;11.772;2022-12-07T21:08:02;17.10;;;9.93;;
46116;SDS011;32591;48.102;11.772;2022-12-07T21:10:29;19.38;;;10.38;;
46116;SDS011;32591;48.102;11.772;2022-12-07T21:15:23;20.15;;;10.23;;
46116;SDS011;32591;48.102;11.772;2022-12-07T21:17:50;16.50;;;9.68;;
46116;SDS011;32591;48.102;11.772;2022-12-07T21:22:44;23.83;;;11.95;;
46116;SDS011;32591;48.102;11.772;2022-12-07T21:25:13;17.90;;;9.82;;
46116;SDS011;32591;48.102;11.772;2022-12-07T21:27:40;23.27;;;10.88;;
46116;SDS011;32591;48.102;11.772;2022-12-07T21:30:08;18.70;;;9.85;;
46116;SDS011;32591;48.102;11.772;2022-12-07T21:32:36;16.63;;;9.57;;
46116;SDS011;32591;48.102;11.772;2022-12-07T21:35:03;17.73;;;8.90;;
46116;SDS011;32591;48.102;11.772;2022-12-07T21:37:31;18.20;;;9.60;;
46116;SDS011;32591;48.102;11.772;2022-12-07T21:39:57;18.90;;;10.35;;
46116;SDS011;32591;48.102;11.772;2022-12-07T21:44:53;19.48;;;10.57;;
46116;SDS011;32591;48.102;11.772;2022-12-07T21:49:46;18.80;;;9.75;;
46116;SDS011;32591;48.102;11.772;2022-12-07T21:54:40;16.33;;;8.88;;
46116;SDS011;32591;48.102;11.772;2022-12-07T21:57:08;16.17;;;9.25;;
46116;SDS011;32591;48.102;11.772;2022-12-07T21:59:37;14.77;;;8.88;;
46116;SDS011;32591;48.102;11.772;2022-12-07T22:02:04;17.50;;;9.02;;
46116;SDS011;32591;48.102;11.772;2022-12-07T22:04:31;18.35;;;9.13;;
46116;SDS011;32591;48.102;11.772;2022-12-07T22:09:25;17.95;;;9.23;;
46116;SDS011;32591;48.102;11.772;2022-12-07T22:11:54;14.38;;;7.93;;
46116;SDS011;32591;48.102;11.772;2022-12-07T22:14:21;17.67;;;8.98;;
46116;SDS011;32591;48.102;11.772;2022-12-07T22:17:07;18.52;;;9.57;;
46116;SDS011;32591;48.102;11.772;2022-12-07T22:19:34;17.40;;;8.82;;
46116;SDS011;32591;48.102;11.772;2022-12-07T22:22:01;16.73;;;8.90;;
46116;SDS011;32591;48.102;11.772;2022-12-07T22:24:28;17.65;;;9.02;;
46116;SDS011;32591;48.102;11.772;2022-12-07T22:26:55;16.67;;;8.52;;
46116;SDS011;32591;48.102;11.772;2022-12-07T22:29:23;16.10;;;8.63;;
46116;SDS011;32591;48.102;11.772;2022-12-07T22:31:50;19.08;;;9.30;;
46116;SDS011;32591;48.102;11.772;2022-12-07T22:36:46;17.40;;;9.20;;
46116;SDS011;32591;48.102;11.772;2022-12-07T22:41:39;13.88;;;7.82;;
46116;SDS011;32591;48.102;11.772;2022-12-07T22:44:07;16.42;;;8.10;;
46116;SDS011;32591;48.102;11.772;2022-12-07T22:46:36;14.88;;;7.97;;
46116;SDS011;32591;48.102;11.772;2022-12-07T22:49:03;14.43;;;7.90;;
46116;SDS011;32591;48.102;11.772;2022-12-07T22:51:32;13.63;;;8.15;;
46116;SDS011;32591;48.102;11.772;2022-12-07T22:54:02;14.27;;;7.45;;
46116;SDS011;32591;48.102;11.772;2022-12-07T22:56:32;14.15;;;6.85;;
46116;SDS011;32591;48.102;11.772;2022-12-07T22:59:02;18.88;;;8.52;;
46116;SDS011;32591;48.102;11.772;2022-12-07T23:01:30;18.35;;;8.73;;
46116;SDS011;32591;48.102;11.772;2022-12-07T23:03:57;12.57;;;6.85;;
46116;SDS011;32591;48.102;11.772;2022-12-07T23:06:25;12.77;;;7.70;;
46116;SDS011;32591;48.102;11.772;2022-12-07T23:08:57;14.57;;;7.78;;
46116;SDS011;32591;48.102;11.772;2022-12-07T23:11:27;16.52;;;8.88;;
46116;SDS011;32591;48.102;11.772;2022-12-07T23:14:14;14.02;;;7.32;;
46116;SDS011;32591;48.102;11.772;2022-12-07T23:16:44;15.70;;;8.32;;
46116;SDS011;32591;48.102;11.772;2022-12-07T23:19:11;15.80;;;8.68;;
46116;SDS011;32591;48.102;11.772;2022-12-07T23:21:38;16.80;;;9.57;;
46116;SDS011;32591;48.102;11.772;2022-12-07T23:24:08;13.50;;;7.75;;
46116;SDS011;32591;48.102;11.772;2022-12-07T23:26:38;16.45;;;7.90;;
46116;SDS011;32591;48.102;11.772;2022-12-07T23:29:06;13.10;;;8.07;;
46116;SDS011;32591;48.102;11.772;2022-12-07T23:31:33;14.50;;;7.40;;
46116;SDS011;32591;48.102;11.772;2022-12-07T23:34:00;13.38;;;7.45;;
46116;SDS011;32591;48.102;11.772;2022-12-07T23:38:55;15.98;;;7.30;;
46116;SDS011;32591;48.102;11.772;2022-12-07T23:41:25;12.40;;;7.40;;
46116;SDS011;32591;48.102;11.772;2022-12-07T23:43:55;15.00;;;8.10;;
46116;SDS011;32591;48.102;11.772;2022-12-07T23:46:25;15.63;;;7.35;;
46116;SDS011;32591;48.102;11.772;2022-12-07T23:48:54;15.02;;;8.10;;
46116;SDS011;32591;48.102;11.772;2022-12-07T23:51:22;16.50;;;7.45;;
46116;SDS011;32591;48.102;11.772;2022-12-07T23:53:50;13.07;;;6.60;;
46116;SDS011;32591;48.102;11.772;2022-12-07T23:56:18;14.98;;;7.93;;
46116;SDS011;32591;48.102;11.772;2022-12-07T23:58:49;14.23;;;7.53;;
